createdAt,value
2023-04-28T00:00:29.470Z,0.43
2023-04-28T00:03:17.229Z,0.36
2023-04-28T00:05:44.433Z,0.31
2023-04-28T00:08:12.435Z,0.32
2023-04-28T00:10:39.597Z,0.28
2023-04-28T00:13:07.185Z,0.23
2023-04-28T00:15:34.171Z,0.22
2023-04-28T00:18:01.429Z,0.22
2023-04-28T00:20:28.393Z,0.21
2023-04-28T00:22:55.525Z,0.19
2023-04-28T00:25:22.512Z,0.17
2023-04-28T00:27:50.305Z,0.16
2023-04-28T00:30:17.425Z,0.16
2023-04-28T00:32:44.679Z,0.16
2023-04-28T00:35:11.564Z,0.09
2023-04-28T00:37:39.579Z,0.04
2023-04-28T00:40:07.154Z,0.04
2023-04-28T00:42:34.337Z,0.03
2023-04-28T00:45:05.946Z,-0.02
2023-04-28T00:47:35.040Z,-0.04
2023-04-28T00:50:02.478Z,-0.07
2023-04-28T00:52:29.937Z,-0.06
2023-04-28T00:54:58.062Z,-0.08
2023-04-28T00:57:25.210Z,-0.11
2023-04-28T00:59:52.539Z,-0.12
2023-04-28T01:02:20.236Z,-0.10
2023-04-28T01:04:48.334Z,-0.03
2023-04-28T01:07:15.459Z,-0.02
2023-04-28T01:09:42.355Z,0.01
2023-04-28T01:12:09.517Z,-0.06
2023-04-28T01:14:36.445Z,-0.05
2023-04-28T01:17:04.073Z,-0.12
2023-04-28T01:19:31.113Z,-0.11
2023-04-28T01:21:58.308Z,-0.08
2023-04-28T01:24:25.236Z,-0.11
2023-04-28T01:26:52.335Z,-0.13
2023-04-28T01:29:19.168Z,-0.19
2023-04-28T01:31:46.453Z,-0.24
2023-04-28T01:34:13.681Z,-0.23
2023-04-28T01:36:41.215Z,-0.27
2023-04-28T01:39:08.320Z,-0.29
2023-04-28T01:41:35.494Z,-0.27
2023-04-28T01:44:02.370Z,-0.25
2023-04-28T01:46:29.596Z,-0.24
2023-04-28T01:48:56.520Z,-0.26
2023-04-28T01:51:23.601Z,-0.22
2023-04-28T01:53:50.491Z,-0.17
2023-04-28T01:56:17.587Z,-0.15
2023-04-28T01:58:44.526Z,-0.11
2023-04-28T02:01:11.736Z,-0.11
2023-04-28T02:03:38.709Z,-0.15
2023-04-28T02:06:06.185Z,-0.17
2023-04-28T02:08:33.022Z,-0.17
2023-04-28T02:11:01.765Z,-0.15
2023-04-28T02:13:28.687Z,-0.20
2023-04-28T02:15:56.132Z,-0.19
2023-04-28T02:18:23.005Z,-0.18
2023-04-28T02:20:50.247Z,-0.14
2023-04-28T02:23:17.148Z,-0.10
2023-04-28T02:25:44.311Z,-0.06
2023-04-28T02:28:11.172Z,-0.05
2023-04-28T02:30:38.362Z,-0.07
2023-04-28T02:33:05.229Z,-0.10
2023-04-28T02:35:32.447Z,-0.10
2023-04-28T02:37:59.305Z,-0.08
2023-04-28T02:43:22.012Z,-0.12
2023-04-28T02:45:49.165Z,-0.11
2023-04-28T02:48:16.111Z,-0.04
2023-04-28T02:50:43.289Z,-0.03
2023-04-28T02:53:10.116Z,-0.01
2023-04-28T02:55:37.298Z,-0.05
2023-04-28T02:58:04.222Z,-0.08
2023-04-28T03:00:31.473Z,-0.11
2023-04-28T03:02:58.821Z,-0.14
2023-04-28T03:05:26.416Z,-0.11
2023-04-28T03:07:53.477Z,-0.06
2023-04-28T03:10:20.738Z,-0.03
2023-04-28T03:12:47.608Z,-0.02
2023-04-28T03:15:14.805Z,0.01
2023-04-28T03:17:43.189Z,0.02
2023-04-28T03:20:11.139Z,0.03
2023-04-28T03:22:38.057Z,0.07
2023-04-28T03:25:05.963Z,0.11
2023-04-28T03:27:32.941Z,0.14
2023-04-28T03:30:00.171Z,0.15
2023-04-28T03:32:27.039Z,0.19
2023-04-28T03:34:54.196Z,0.16
2023-04-28T03:37:21.078Z,0.17
2023-04-28T03:39:48.295Z,0.15
2023-04-28T03:42:15.206Z,0.12
2023-04-28T03:44:42.375Z,0.09
2023-04-28T03:47:09.295Z,0.11
2023-04-28T03:49:36.484Z,0.15
2023-04-28T03:52:04.539Z,0.24
2023-04-28T03:54:31.886Z,0.35
2023-04-28T03:56:59.583Z,0.51
2023-04-28T03:59:26.961Z,0.71
2023-04-28T04:01:53.822Z,0.90
2023-04-28T04:04:21.490Z,1.10
2023-04-28T04:06:48.868Z,1.28
2023-04-28T04:09:16.296Z,1.47
2023-04-28T04:11:43.181Z,1.61
2023-04-28T04:14:10.593Z,1.78
2023-04-28T04:16:37.640Z,2.02
2023-04-28T04:19:04.760Z,2.29
2023-04-28T04:21:32.006Z,2.58
2023-04-28T04:23:59.146Z,2.75
2023-04-28T04:26:26.063Z,3.01
2023-04-28T04:28:53.498Z,3.28
2023-04-28T04:31:20.382Z,3.56
2023-04-28T04:33:47.765Z,3.91
2023-04-28T04:36:14.865Z,4.14
2023-04-28T04:38:41.986Z,4.39
2023-04-28T04:41:08.854Z,4.63
2023-04-28T04:43:36.016Z,4.68
2023-04-28T04:46:04.121Z,4.71
2023-04-28T04:48:31.399Z,4.85
2023-04-28T04:50:58.217Z,4.98
2023-04-28T04:53:25.324Z,4.92
2023-04-28T04:55:52.217Z,4.86
2023-04-28T04:58:19.556Z,4.84
2023-04-28T05:00:46.500Z,4.84
2023-04-28T05:03:13.845Z,4.86
2023-04-28T05:05:40.892Z,4.96
2023-04-28T05:08:08.009Z,5.25
2023-04-28T05:10:34.861Z,5.75
2023-04-28T05:13:02.047Z,6.37
2023-04-28T05:15:29.244Z,6.81
2023-04-28T05:17:57.083Z,7.03
2023-04-28T05:20:24.020Z,7.00
2023-04-28T05:22:51.800Z,6.95
2023-04-28T05:25:18.611Z,7.11
2023-04-28T05:27:45.839Z,7.69
2023-04-28T05:30:12.966Z,8.32
2023-04-28T05:32:40.108Z,8.77
2023-04-28T05:35:07.339Z,8.78
2023-04-28T05:37:34.532Z,8.65
2023-04-28T05:40:01.341Z,8.65
2023-04-28T05:42:28.554Z,8.82
2023-04-28T05:44:55.543Z,8.91
2023-04-28T05:47:22.841Z,8.93
2023-04-28T05:49:49.767Z,9.36
2023-04-28T05:52:16.896Z,10.14
2023-04-28T05:54:43.695Z,10.76
2023-04-28T05:57:11.318Z,10.99
2023-04-28T05:59:38.589Z,11.12
2023-04-28T06:02:05.783Z,11.19
2023-04-28T06:04:33.079Z,11.13
2023-04-28T06:07:00.576Z,11.08
2023-04-28T06:09:27.442Z,11.24
2023-04-28T06:11:54.592Z,11.72
2023-04-28T06:14:23.022Z,12.34
2023-04-28T06:16:51.234Z,12.82
2023-04-28T06:19:19.085Z,13.29
2023-04-28T06:21:46.676Z,14.17
2023-04-28T06:24:13.605Z,15.08
2023-04-28T06:26:40.758Z,15.77
2023-04-28T06:29:07.653Z,16.35
2023-04-28T06:31:34.820Z,16.56
2023-04-28T06:34:01.900Z,16.55
2023-04-28T06:36:29.104Z,16.63
2023-04-28T06:38:56.107Z,17.17
2023-04-28T06:41:23.592Z,18.03
2023-04-28T06:43:51.099Z,18.78
2023-04-28T06:46:18.306Z,19.34
2023-04-28T06:48:45.186Z,19.88
2023-04-28T06:51:12.444Z,20.55
2023-04-28T06:53:39.336Z,21.22
2023-04-28T06:56:07.821Z,21.92
2023-04-28T06:58:37.120Z,22.63
2023-04-28T07:01:05.820Z,23.15
2023-04-28T07:03:32.932Z,23.70
2023-04-28T07:06:00.284Z,24.15
2023-04-28T07:08:27.759Z,24.73
2023-04-28T07:10:54.922Z,25.25
2023-04-28T07:13:22.155Z,25.55
2023-04-28T07:15:49.948Z,25.21
2023-04-28T07:18:16.953Z,24.40
2023-04-28T07:20:44.148Z,24.27
2023-04-28T07:23:11.500Z,24.55
2023-04-28T07:25:40.146Z,24.60
2023-04-28T07:28:07.905Z,24.42
2023-04-28T07:30:35.824Z,23.91
2023-04-28T07:33:02.991Z,23.40
2023-04-28T07:35:30.365Z,22.75
2023-04-28T07:37:58.133Z,22.06
2023-04-28T07:40:25.308Z,21.34
2023-04-28T07:42:52.208Z,20.64
2023-04-28T07:45:19.463Z,19.91
2023-04-28T07:47:46.417Z,19.25
2023-04-28T07:50:13.604Z,18.43
2023-04-28T07:52:40.457Z,17.71
2023-04-28T07:55:08.828Z,17.16
2023-04-28T07:57:35.932Z,16.69
2023-04-28T08:00:03.872Z,16.30
2023-04-28T08:02:31.128Z,16.03
2023-04-28T08:04:58.614Z,15.77
2023-04-28T08:07:26.225Z,15.62
2023-04-28T08:09:53.891Z,15.56
2023-04-28T08:12:22.051Z,16.03
2023-04-28T08:14:49.269Z,17.27
2023-04-28T08:17:17.701Z,18.14
2023-04-28T08:19:46.422Z,18.64
2023-04-28T08:22:13.821Z,18.95
2023-04-28T08:24:41.187Z,19.06
2023-04-28T08:27:08.371Z,19.05
2023-04-28T08:29:35.610Z,19.26
2023-04-28T08:32:02.522Z,18.51
2023-04-28T08:34:29.991Z,17.73
2023-04-28T08:36:57.005Z,17.14
2023-04-28T08:39:26.551Z,16.41
2023-04-28T08:41:53.964Z,15.65
2023-04-28T08:44:21.159Z,15.03
2023-04-28T08:46:50.295Z,15.35
2023-04-28T08:49:18.985Z,16.36
2023-04-28T08:51:57.429Z,17.11
2023-04-28T08:54:30.759Z,17.22
2023-04-28T08:56:58.765Z,17.49
2023-04-28T08:59:26.465Z,18.21
2023-04-28T09:01:53.478Z,18.75
2023-04-28T09:04:21.602Z,18.93
2023-04-28T09:06:48.979Z,18.84
2023-04-28T09:09:22.029Z,18.64
2023-04-28T09:11:53.730Z,18.38
2023-04-28T09:14:21.080Z,18.13
2023-04-28T09:16:48.434Z,17.90
2023-04-28T09:19:19.522Z,17.72
2023-04-28T09:21:57.270Z,17.69
2023-04-28T09:24:42.962Z,17.77
2023-04-28T09:27:12.270Z,18.12
2023-04-28T09:29:39.658Z,19.01
2023-04-28T09:32:17.933Z,20.25
2023-04-28T09:34:49.379Z,21.38
2023-04-28T09:37:17.073Z,21.10
2023-04-28T09:39:51.903Z,20.26
2023-04-28T09:42:41.254Z,19.91
2023-04-28T09:45:11.339Z,20.59
2023-04-28T09:47:41.136Z,21.77
2023-04-28T09:50:12.638Z,23.17
2023-04-28T09:52:49.306Z,24.42
2023-04-28T09:55:17.852Z,25.16
2023-04-28T09:57:47.298Z,25.34
2023-04-28T10:00:17.231Z,25.42
2023-04-28T10:02:44.994Z,25.97
2023-04-28T10:05:13.366Z,26.80
2023-04-28T10:07:40.663Z,27.43
2023-04-28T10:10:08.825Z,28.24
2023-04-28T10:12:38.722Z,28.86
2023-04-28T10:15:08.463Z,28.97
2023-04-28T10:17:36.865Z,28.54
2023-04-28T10:20:05.419Z,27.27
2023-04-28T10:22:44.316Z,26.16
2023-04-28T10:25:12.090Z,25.36
2023-04-28T10:27:41.709Z,24.95
2023-04-28T10:30:28.379Z,24.47
2023-04-28T10:33:15.038Z,23.74
2023-04-28T10:35:44.761Z,23.01
2023-04-28T10:38:15.503Z,22.48
2023-04-28T10:40:46.157Z,22.56
2023-04-28T10:43:27.281Z,23.26
2023-04-28T10:45:57.469Z,24.47
2023-04-28T10:48:34.354Z,25.47
2023-04-28T10:51:12.772Z,26.53
2023-04-28T10:53:45.712Z,27.55
2023-04-28T10:56:13.750Z,28.07
2023-04-28T10:58:46.378Z,27.72
2023-04-28T11:01:24.256Z,27.03
2023-04-28T11:04:00.340Z,27.12
2023-04-28T11:06:32.365Z,26.99
2023-04-28T11:09:02.046Z,26.89
2023-04-28T11:11:35.236Z,26.44
2023-04-28T11:14:18.187Z,26.30
2023-04-28T11:17:03.094Z,26.42
2023-04-28T11:19:31.626Z,27.07
2023-04-28T11:22:00.192Z,27.38
2023-04-28T11:24:31.508Z,27.90
2023-04-28T11:26:59.492Z,28.20
2023-04-28T11:29:37.999Z,28.52
2023-04-28T11:32:10.934Z,28.94
2023-04-28T11:34:38.408Z,29.40
2023-04-28T11:37:09.290Z,29.60
2023-04-28T11:39:36.336Z,28.57
2023-04-28T11:42:10.563Z,27.50
2023-04-28T11:44:38.173Z,27.36
2023-04-28T11:47:07.320Z,27.55
2023-04-28T11:49:46.988Z,27.62
2023-04-28T11:52:14.334Z,28.30
2023-04-28T11:54:43.998Z,28.66
2023-04-28T11:57:18.665Z,28.63
2023-04-28T11:59:46.455Z,27.25
2023-04-28T12:02:13.977Z,26.23
2023-04-28T12:04:42.930Z,26.30
2023-04-28T12:07:18.512Z,26.24
2023-04-28T12:10:05.027Z,26.31
2023-04-28T12:15:05.725Z,26.44
2023-04-28T12:17:38.004Z,26.41
2023-04-28T12:20:07.304Z,26.80
2023-04-28T12:22:48.644Z,26.86
2023-04-28T12:25:17.793Z,27.07
2023-04-28T12:28:00.794Z,26.67
2023-04-28T12:30:28.778Z,25.48
2023-04-28T12:32:56.988Z,23.35
2023-04-28T12:35:25.712Z,22.32
2023-04-28T12:37:53.786Z,20.74
2023-04-28T12:40:20.733Z,19.56
2023-04-28T12:42:48.081Z,18.69
2023-04-28T12:45:16.651Z,18.56
2023-04-28T12:47:44.169Z,18.36
2023-04-28T12:50:11.069Z,18.36
2023-04-28T12:52:38.205Z,18.47
2023-04-28T12:55:05.543Z,18.60
2023-04-28T12:57:32.858Z,18.76
2023-04-28T12:59:59.928Z,18.43
2023-04-28T13:02:27.236Z,18.01
2023-04-28T13:04:54.317Z,17.73
2023-04-28T13:07:22.061Z,17.55
2023-04-28T13:09:48.941Z,17.43
2023-04-28T13:12:16.136Z,17.40
2023-04-28T13:14:43.039Z,17.40
2023-04-28T13:17:10.862Z,17.58
2023-04-28T13:19:38.948Z,17.75
2023-04-28T13:22:06.855Z,17.91
2023-04-28T13:24:33.774Z,18.14
2023-04-28T13:27:01.029Z,18.35
2023-04-28T13:29:27.947Z,18.51
2023-04-28T13:31:55.197Z,18.68
2023-04-28T13:34:22.124Z,18.77
2023-04-28T13:36:51.066Z,18.85
2023-04-28T13:39:20.334Z,18.93
2023-04-28T13:41:50.443Z,18.97
2023-04-28T13:44:17.952Z,19.07
2023-04-28T13:46:46.086Z,18.92
2023-04-28T13:49:13.484Z,17.98
2023-04-28T13:51:41.073Z,16.99
2023-04-28T13:54:09.001Z,16.57
2023-04-28T13:56:36.700Z,16.49
2023-04-28T13:59:03.880Z,16.40
2023-04-28T14:01:31.304Z,16.48
2023-04-28T14:03:58.623Z,16.52
2023-04-28T14:06:27.452Z,16.45
2023-04-28T14:08:54.455Z,16.27
2023-04-28T14:11:22.655Z,15.82
2023-04-28T14:13:49.591Z,15.44
2023-04-28T14:16:16.926Z,15.29
2023-04-28T14:18:43.860Z,15.24
2023-04-28T14:21:11.106Z,15.34
2023-04-28T14:23:38.585Z,15.51
2023-04-28T14:26:06.946Z,15.46
2023-04-28T14:28:33.901Z,15.33
2023-04-28T14:31:06.262Z,15.28
2023-04-28T14:33:33.256Z,15.32
2023-04-28T14:36:02.197Z,15.21
2023-04-28T14:38:30.794Z,14.76
2023-04-28T14:40:58.349Z,14.59
2023-04-28T14:43:25.737Z,14.42
2023-04-28T14:45:53.543Z,14.27
2023-04-28T14:48:20.860Z,14.28
2023-04-28T14:50:48.068Z,14.35
2023-04-28T14:53:14.944Z,14.45
2023-04-28T14:55:42.348Z,14.48
2023-04-28T14:58:09.158Z,14.54
2023-04-28T15:00:36.554Z,14.54
2023-04-28T15:03:04.168Z,14.58
2023-04-28T15:05:31.532Z,14.54
2023-04-28T15:07:58.835Z,14.48
2023-04-28T15:10:32.763Z,14.31
2023-04-28T15:12:59.632Z,14.23
2023-04-28T15:15:27.583Z,14.21
2023-04-28T15:18:00.551Z,14.20
2023-04-28T15:20:30.604Z,14.07
2023-04-28T15:22:57.869Z,13.80
2023-04-28T15:25:26.210Z,13.69
2023-04-28T15:27:53.087Z,13.68
2023-04-28T15:30:20.330Z,13.66
2023-04-28T15:32:49.222Z,13.60
2023-04-28T15:35:16.718Z,13.59
2023-04-28T15:37:45.331Z,13.66
2023-04-28T15:40:14.740Z,13.62
2023-04-28T15:42:43.016Z,13.40
2023-04-28T15:45:11.228Z,13.24
2023-04-28T15:47:39.133Z,13.10
2023-04-28T15:50:09.062Z,12.95
2023-04-28T15:52:38.053Z,12.86
2023-04-28T15:55:05.309Z,12.79
2023-04-28T15:57:32.143Z,12.68
2023-04-28T15:59:59.352Z,12.66
2023-04-28T16:02:26.380Z,12.67
2023-04-28T16:04:53.867Z,12.69
2023-04-28T16:07:20.915Z,12.63
2023-04-28T16:09:48.044Z,12.58
2023-04-28T16:12:15.003Z,12.56
2023-04-28T16:14:42.453Z,12.53
2023-04-28T16:17:09.325Z,12.51
2023-04-28T16:19:36.804Z,12.45
2023-04-28T16:22:03.746Z,12.42
2023-04-28T16:24:31.734Z,12.28
2023-04-28T16:26:58.565Z,12.26
2023-04-28T16:29:26.566Z,12.24
2023-04-28T16:31:53.609Z,12.12
2023-04-28T16:34:20.731Z,12.09
2023-04-28T16:36:47.685Z,12.06
2023-04-28T16:39:15.938Z,12.00
2023-04-28T16:41:42.844Z,11.91
2023-04-28T16:44:10.176Z,11.81
2023-04-28T16:46:37.337Z,11.76
2023-04-28T16:49:04.704Z,11.69
2023-04-28T16:51:35.022Z,11.59
2023-04-28T16:54:02.346Z,11.52
2023-04-28T16:56:29.915Z,11.50
2023-04-28T16:58:56.997Z,11.47
2023-04-28T17:01:23.957Z,11.42
2023-04-28T17:03:51.478Z,11.34
2023-04-28T17:06:18.458Z,11.28
2023-04-28T17:08:45.588Z,11.20
2023-04-28T17:11:16.616Z,11.14
2023-04-28T17:13:43.739Z,11.06
2023-04-28T17:16:11.606Z,10.96
2023-04-28T17:18:38.792Z,10.87
2023-04-28T17:21:05.975Z,10.80
2023-04-28T17:23:33.101Z,10.72
2023-04-28T17:25:59.989Z,10.62
2023-04-28T17:28:28.129Z,10.52
2023-04-28T17:30:55.928Z,10.42
2023-04-28T17:33:23.124Z,10.30
2023-04-28T17:35:50.170Z,10.17
2023-04-28T17:38:17.384Z,10.05
2023-04-28T17:40:48.700Z,9.93
2023-04-28T17:43:16.403Z,9.82
2023-04-28T17:45:43.859Z,9.68
2023-04-28T17:48:12.552Z,9.53
2023-04-28T17:50:39.445Z,9.35
2023-04-28T17:53:06.839Z,9.20
2023-04-28T17:55:33.733Z,9.04
2023-04-28T17:58:00.907Z,8.89
2023-04-28T18:00:27.749Z,8.76
2023-04-28T18:02:55.740Z,8.61
2023-04-28T18:05:24.440Z,8.42
2023-04-28T18:07:52.205Z,8.25
2023-04-28T18:10:19.114Z,8.12
2023-04-28T18:12:46.476Z,7.98
2023-04-28T18:15:13.616Z,7.84
2023-04-28T18:17:40.905Z,7.70
2023-04-28T18:20:08.611Z,7.56
2023-04-28T18:22:35.885Z,7.43
2023-04-28T18:25:02.866Z,7.32
2023-04-28T18:27:30.057Z,7.23
2023-04-28T18:29:56.930Z,7.17
2023-04-28T18:32:24.072Z,7.05
2023-04-28T18:34:51.112Z,6.95
2023-04-28T18:37:18.551Z,6.85
2023-04-28T18:39:45.434Z,6.76
2023-04-28T18:42:13.284Z,6.71
2023-04-28T18:44:41.397Z,6.65
2023-04-28T18:47:08.915Z,6.58
2023-04-28T18:49:38.162Z,6.49
2023-04-28T18:52:05.358Z,6.41
2023-04-28T18:54:32.988Z,6.29
2023-04-28T18:57:00.193Z,6.17
2023-04-28T18:59:27.110Z,6.09
2023-04-28T19:01:54.298Z,6.02
2023-04-28T19:04:22.456Z,5.94
2023-04-28T19:06:49.854Z,5.86
2023-04-28T19:09:17.170Z,5.77
2023-04-28T19:11:44.268Z,5.65
2023-04-28T19:14:11.177Z,5.54
2023-04-28T19:16:38.394Z,5.48
2023-04-28T19:19:06.565Z,5.38
2023-04-28T19:21:41.367Z,5.30
2023-04-28T19:24:08.288Z,5.23
2023-04-28T19:26:35.523Z,5.17
2023-04-28T19:29:02.432Z,5.13
2023-04-28T19:31:29.637Z,5.07
2023-04-28T19:33:57.868Z,5.04
2023-04-28T19:36:25.311Z,4.97
2023-04-28T19:38:52.181Z,4.96
2023-04-28T19:41:20.905Z,4.94
2023-04-28T19:43:47.733Z,4.91
2023-04-28T19:46:16.399Z,4.89
2023-04-28T19:48:46.023Z,4.90
2023-04-28T19:51:14.517Z,4.94
2023-04-28T19:53:41.394Z,4.97
2023-04-28T19:56:10.197Z,4.97
2023-04-28T19:58:37.749Z,4.95
2023-04-28T20:01:08.446Z,4.98
2023-04-28T20:03:36.145Z,5.04
2023-04-28T20:06:03.991Z,5.17
2023-04-28T20:08:30.915Z,5.32
2023-04-28T20:10:58.233Z,5.56
2023-04-28T20:13:26.085Z,5.73
2023-04-28T20:15:55.155Z,5.84
2023-04-28T20:18:22.101Z,5.92
2023-04-28T20:20:52.656Z,5.88
2023-04-28T20:23:19.638Z,5.83
2023-04-28T20:25:47.144Z,5.82
2023-04-28T20:28:14.419Z,5.75
2023-04-28T20:30:44.643Z,5.65
2023-04-28T20:33:11.468Z,5.51
2023-04-28T20:35:38.625Z,5.34
2023-04-28T20:38:05.470Z,5.24
2023-04-28T20:40:33.539Z,5.12
2023-04-28T20:43:02.245Z,4.93
2023-04-28T20:45:32.473Z,4.84
2023-04-28T20:47:59.356Z,4.68
2023-04-28T20:50:28.344Z,4.58
2023-04-28T20:52:55.165Z,4.47
2023-04-28T20:55:23.029Z,4.36
2023-04-28T20:57:49.982Z,4.27
2023-04-28T21:00:17.712Z,4.19
2023-04-28T21:02:45.433Z,4.10
2023-04-28T21:05:12.934Z,4.00
2023-04-28T21:07:39.776Z,3.93
2023-04-28T21:10:07.570Z,3.88
2023-04-28T21:12:34.430Z,3.77
2023-04-28T21:15:01.713Z,3.73
2023-04-28T21:17:28.570Z,3.65
2023-04-28T21:19:57.420Z,3.57
2023-04-28T21:22:25.042Z,3.49
2023-04-28T21:24:54.594Z,3.40
2023-04-28T21:27:21.842Z,3.35
2023-04-28T21:29:49.191Z,3.24
2023-04-28T21:32:16.326Z,3.22
2023-04-28T21:34:47.556Z,3.17
2023-04-28T21:37:14.589Z,3.12
2023-04-28T21:39:41.702Z,3.06
2023-04-28T21:42:08.818Z,3.00
2023-04-28T21:44:35.956Z,2.96
2023-04-28T21:47:02.828Z,2.90
2023-04-28T21:49:29.970Z,2.87
2023-04-28T21:51:56.789Z,2.82
2023-04-28T21:54:24.384Z,2.80
2023-04-28T21:56:52.702Z,2.74
2023-04-28T21:59:20.118Z,2.72
2023-04-28T22:01:47.028Z,2.68
2023-04-28T22:04:15.290Z,2.66
2023-04-28T22:06:42.364Z,2.62
2023-04-28T22:09:09.468Z,2.56
2023-04-28T22:11:36.367Z,2.49
2023-04-28T22:14:03.625Z,2.47
2023-04-28T22:16:30.556Z,2.43
2023-04-28T22:18:57.874Z,2.40
2023-04-28T22:21:25.564Z,2.36
2023-04-28T22:23:52.727Z,2.31
2023-04-28T22:26:20.818Z,2.31
2023-04-28T22:28:48.739Z,2.25
2023-04-28T22:31:15.637Z,2.22
2023-04-28T22:33:43.494Z,2.20
2023-04-28T22:36:10.513Z,2.18
2023-04-28T22:38:37.829Z,2.17
2023-04-28T22:41:05.415Z,2.14
2023-04-28T22:43:32.548Z,2.11
2023-04-28T22:45:59.411Z,2.06
2023-04-28T22:48:26.655Z,2.04
2023-04-28T22:50:53.539Z,2.00
2023-04-28T22:53:20.798Z,1.97
2023-04-28T22:55:47.697Z,1.94
2023-04-28T22:58:14.788Z,1.96
2023-04-28T23:00:41.641Z,1.92
2023-04-28T23:03:08.995Z,1.87
2023-04-28T23:05:38.988Z,1.85
2023-04-28T23:08:06.129Z,1.80
2023-04-28T23:10:33.012Z,1.78
2023-04-28T23:13:00.157Z,1.73
2023-04-28T23:15:27.046Z,1.69
2023-04-28T23:17:54.281Z,1.67
2023-04-28T23:20:21.177Z,1.65
2023-04-28T23:22:48.477Z,1.62
2023-04-28T23:25:15.369Z,1.61
2023-04-28T23:27:42.555Z,1.58
2023-04-28T23:30:10.087Z,1.55
2023-04-28T23:32:37.501Z,1.53
2023-04-28T23:35:04.668Z,1.47
2023-04-28T23:37:32.199Z,1.48
2023-04-28T23:39:59.125Z,1.45
2023-04-28T23:42:27.026Z,1.44
2023-04-28T23:44:53.952Z,1.44
2023-04-28T23:47:21.266Z,1.42
2023-04-28T23:49:48.338Z,1.39
2023-04-28T23:52:15.679Z,1.37
2023-04-28T23:54:42.540Z,1.37
2023-04-28T23:57:09.610Z,1.31
2023-04-28T23:59:36.935Z,1.29
